createdAt,value
2023-07-07T00:03:32.211Z,51.58
2023-07-07T00:05:58.946Z,51.25
2023-07-07T00:08:25.829Z,50.75
2023-07-07T00:10:53.612Z,51.25
2023-07-07T00:13:21.583Z,50.06
2023-07-07T00:15:48.433Z,50.88
2023-07-07T00:18:27.559Z,50.77
2023-07-07T00:21:00.510Z,50.28
2023-07-07T00:23:30.874Z,50.18
2023-07-07T00:26:09.647Z,49.69
2023-07-07T00:28:37.089Z,49.93
2023-07-07T00:31:06.309Z,50.82
2023-07-07T00:33:33.258Z,49.90
2023-07-07T00:36:00.610Z,50.38
2023-07-07T00:38:27.690Z,49.75
2023-07-07T00:40:54.723Z,49.51
2023-07-07T00:43:23.444Z,49.70
2023-07-07T00:45:50.852Z,49.54
2023-07-07T00:48:22.306Z,49.86
2023-07-07T00:50:56.175Z,50.03
2023-07-07T00:53:25.119Z,50.34
2023-07-07T00:55:57.627Z,50.43
2023-07-07T00:58:27.135Z,51.10
2023-07-07T01:01:02.170Z,50.71
2023-07-07T01:03:38.719Z,50.89
2023-07-07T01:06:09.317Z,51.67
2023-07-07T01:08:37.768Z,51.46
2023-07-07T01:11:05.422Z,51.00
2023-07-07T01:13:32.740Z,50.94
2023-07-07T01:16:32.133Z,51.10
2023-07-07T01:19:18.065Z,51.38
2023-07-07T01:21:54.765Z,51.33
2023-07-07T01:24:33.429Z,51.51
2023-07-07T01:27:21.611Z,51.37
2023-07-07T01:30:19.486Z,51.90
2023-07-07T01:32:47.155Z,51.89
2023-07-07T01:35:33.057Z,52.62
2023-07-07T01:38:40.906Z,51.76
2023-07-07T01:41:15.794Z,51.39
2023-07-07T01:44:03.336Z,51.10
2023-07-07T01:46:58.424Z,50.98
2023-07-07T01:49:54.680Z,50.50
2023-07-07T01:52:21.426Z,50.96
2023-07-07T01:54:56.253Z,50.52
2023-07-07T01:57:25.841Z,50.71
2023-07-07T02:00:08.888Z,51.16
2023-07-07T02:02:44.310Z,51.82
2023-07-07T02:05:12.735Z,52.81
2023-07-07T02:07:40.946Z,52.14
2023-07-07T02:10:08.187Z,52.68
2023-07-07T02:12:36.218Z,53.00
2023-07-07T02:15:04.097Z,53.47
2023-07-07T02:17:31.816Z,53.94
2023-07-07T02:19:58.657Z,53.22
2023-07-07T02:22:26.145Z,53.48
2023-07-07T02:24:52.988Z,54.42
2023-07-07T02:27:20.553Z,54.05
2023-07-07T02:29:47.493Z,53.23
2023-07-07T02:32:16.150Z,53.17
2023-07-07T02:34:49.083Z,52.99
2023-07-07T02:37:19.909Z,52.04
2023-07-07T02:39:47.277Z,52.52
2023-07-07T02:42:14.857Z,54.04
2023-07-07T02:44:42.300Z,53.39
2023-07-07T02:47:10.172Z,53.88
2023-07-07T02:49:37.602Z,53.19
2023-07-07T02:52:06.081Z,54.46
2023-07-07T02:54:33.342Z,55.60
2023-07-07T02:57:00.388Z,55.54
2023-07-07T02:59:27.457Z,55.23
2023-07-07T03:01:54.229Z,55.00
2023-07-07T03:04:21.634Z,54.54
2023-07-07T03:06:49.028Z,55.00
2023-07-07T03:09:16.000Z,55.80
2023-07-07T03:11:46.082Z,55.99
2023-07-07T03:14:16.951Z,56.33
2023-07-07T03:16:48.379Z,54.92
2023-07-07T03:19:21.173Z,54.60
2023-07-07T03:22:06.197Z,54.45
2023-07-07T03:24:54.864Z,53.85
2023-07-07T03:27:31.094Z,54.18
2023-07-07T03:29:58.544Z,55.96
2023-07-07T03:32:26.219Z,55.87
2023-07-07T03:35:00.190Z,56.06
2023-07-07T03:37:29.131Z,56.45
2023-07-07T03:39:56.544Z,56.41
2023-07-07T03:42:23.359Z,55.78
2023-07-07T03:44:50.696Z,55.36
2023-07-07T03:47:19.109Z,56.08
2023-07-07T03:49:46.066Z,56.85
2023-07-07T03:52:14.117Z,56.28
2023-07-07T03:54:42.043Z,56.27
2023-07-07T03:57:12.056Z,55.63
2023-07-07T03:59:39.161Z,55.43
2023-07-07T04:02:07.183Z,55.34
2023-07-07T04:04:34.138Z,55.25
2023-07-07T04:07:04.078Z,55.52
2023-07-07T04:09:31.741Z,55.11
2023-07-07T04:11:58.527Z,54.85
2023-07-07T04:14:29.801Z,54.92
2023-07-07T04:16:56.649Z,54.85
2023-07-07T04:19:23.571Z,54.04
2023-07-07T04:21:50.934Z,54.60
2023-07-07T04:24:21.429Z,55.23
2023-07-07T04:26:48.464Z,54.83
2023-07-07T04:29:15.424Z,54.97
2023-07-07T04:31:46.886Z,54.96
2023-07-07T04:34:16.039Z,55.15
2023-07-07T04:36:45.725Z,56.43
2023-07-07T04:39:13.337Z,54.72
2023-07-07T04:41:40.137Z,55.20
2023-07-07T04:44:07.029Z,54.72
2023-07-07T04:46:36.814Z,54.40
2023-07-07T04:49:09.069Z,54.83
2023-07-07T04:51:41.499Z,54.61
2023-07-07T04:54:16.006Z,53.94
2023-07-07T04:56:45.760Z,52.98
2023-07-07T04:59:12.547Z,52.93
2023-07-07T05:01:40.230Z,52.69
2023-07-07T05:04:08.643Z,52.46
2023-07-07T05:06:38.914Z,52.69
2023-07-07T05:09:11.159Z,52.91
2023-07-07T05:11:38.308Z,52.57
2023-07-07T05:14:05.373Z,51.15
2023-07-07T05:16:38.637Z,51.47
2023-07-07T05:19:07.036Z,51.02
2023-07-07T05:21:33.974Z,49.67
2023-07-07T05:24:01.052Z,50.60
2023-07-07T05:26:28.851Z,49.83
2023-07-07T05:29:02.005Z,49.30
2023-07-07T05:31:29.178Z,49.37
2023-07-07T05:33:56.045Z,49.61
2023-07-07T05:36:23.104Z,47.93
2023-07-07T05:38:51.403Z,48.24
2023-07-07T05:41:18.263Z,47.80
2023-07-07T05:43:45.240Z,47.09
2023-07-07T05:46:14.793Z,48.21
2023-07-07T05:48:42.983Z,47.71
2023-07-07T05:51:13.941Z,46.61
2023-07-07T05:53:42.189Z,46.53
2023-07-07T05:56:13.687Z,46.94
2023-07-07T05:58:43.224Z,45.86
2023-07-07T06:01:11.563Z,46.54
2023-07-07T06:03:40.462Z,46.21
2023-07-07T06:06:08.592Z,46.61
2023-07-07T06:08:35.698Z,45.34
2023-07-07T06:11:03.028Z,44.19
2023-07-07T06:13:30.097Z,44.38
2023-07-07T06:15:57.454Z,44.48
2023-07-07T06:18:24.624Z,44.22
2023-07-07T06:20:54.010Z,43.34
2023-07-07T06:23:21.637Z,42.33
2023-07-07T06:25:49.236Z,43.54
2023-07-07T06:28:17.419Z,43.36
2023-07-07T06:30:44.856Z,41.89
2023-07-07T06:33:11.752Z,41.69
2023-07-07T06:35:38.576Z,41.52
2023-07-07T06:38:06.467Z,41.68
2023-07-07T06:40:33.378Z,40.39
2023-07-07T06:43:00.229Z,40.16
2023-07-07T06:45:27.225Z,38.92
2023-07-07T06:47:55.006Z,39.22
2023-07-07T06:50:33.395Z,38.47
2023-07-07T06:53:00.372Z,37.97
2023-07-07T06:55:27.487Z,37.67
2023-07-07T06:57:54.356Z,36.54
2023-07-07T07:00:22.478Z,36.03
2023-07-07T07:02:49.922Z,34.79
2023-07-07T07:05:17.105Z,36.59
2023-07-07T07:07:43.906Z,36.74
2023-07-07T07:10:11.980Z,35.84
2023-07-07T07:12:38.836Z,35.26
2023-07-07T07:15:06.472Z,35.04
2023-07-07T07:17:36.081Z,36.05
2023-07-07T07:20:05.713Z,34.98
2023-07-07T07:22:32.534Z,34.43
2023-07-07T07:24:59.447Z,34.21
2023-07-07T07:27:26.737Z,34.71
2023-07-07T07:29:53.661Z,33.43
2023-07-07T07:32:20.412Z,32.50
2023-07-07T07:34:47.415Z,31.88
2023-07-07T07:37:15.816Z,33.65
2023-07-07T07:39:43.205Z,32.51
2023-07-07T07:42:10.920Z,31.64
2023-07-07T07:44:37.918Z,31.46
2023-07-07T07:47:05.076Z,29.60
2023-07-07T07:49:31.932Z,31.23
2023-07-07T07:51:58.726Z,30.08
2023-07-07T07:54:26.550Z,29.32
2023-07-07T07:56:53.577Z,29.92
2023-07-07T07:59:21.064Z,29.86
2023-07-07T08:01:48.119Z,28.14
2023-07-07T08:04:15.075Z,29.84
2023-07-07T08:06:43.814Z,30.21
2023-07-07T08:09:12.447Z,30.04
2023-07-07T08:11:42.872Z,30.71
2023-07-07T08:14:19.772Z,29.70
2023-07-07T08:16:47.936Z,28.54
2023-07-07T08:19:18.155Z,29.30
2023-07-07T08:21:47.197Z,30.03
2023-07-07T08:24:14.313Z,29.00
2023-07-07T08:26:41.924Z,27.52
2023-07-07T08:29:24.694Z,26.96
2023-07-07T08:31:52.625Z,26.20
2023-07-07T08:34:19.916Z,27.36
2023-07-07T08:36:48.887Z,26.66
2023-07-07T08:39:23.551Z,27.37
2023-07-07T08:41:53.911Z,26.77
2023-07-07T08:44:23.994Z,26.83
2023-07-07T08:46:54.488Z,25.85
2023-07-07T08:49:33.039Z,26.97
2023-07-07T08:52:16.471Z,27.27
2023-07-07T08:55:07.807Z,27.37
2023-07-07T08:57:45.535Z,26.45
2023-07-07T09:00:22.056Z,25.01
2023-07-07T09:03:15.023Z,25.42
2023-07-07T09:05:57.665Z,25.16
2023-07-07T09:08:41.603Z,24.81
2023-07-07T09:11:15.870Z,22.98
2023-07-07T09:13:46.029Z,21.76
2023-07-07T09:16:27.630Z,21.71
2023-07-07T09:19:21.376Z,22.05
2023-07-07T09:22:05.181Z,19.18
2023-07-07T09:24:59.184Z,19.61
2023-07-07T09:27:36.006Z,20.68
2023-07-07T09:30:20.706Z,18.98
2023-07-07T09:32:50.026Z,18.53
2023-07-07T09:35:20.292Z,18.22
2023-07-07T09:38:21.044Z,18.48
2023-07-07T09:41:25.664Z,17.60
2023-07-07T09:44:15.980Z,20.29
2023-07-07T09:47:00.190Z,20.59
2023-07-07T09:49:52.739Z,19.99
2023-07-07T09:52:37.975Z,20.88
2023-07-07T09:55:23.314Z,22.16
2023-07-07T09:58:05.074Z,23.22
2023-07-07T10:00:45.266Z,23.16
2023-07-07T10:03:36.894Z,22.16
2023-07-07T10:06:08.261Z,22.78
2023-07-07T10:08:35.108Z,22.17
2023-07-07T10:13:53.017Z,22.63
2023-07-07T10:16:31.949Z,22.58
2023-07-07T10:19:01.821Z,23.23
2023-07-07T10:21:29.113Z,23.43
2023-07-07T10:23:55.960Z,22.90
2023-07-07T10:26:23.958Z,22.61
2023-07-07T10:28:54.271Z,22.80
2023-07-07T10:31:21.139Z,22.38
2023-07-07T10:33:52.223Z,21.64
2023-07-07T10:36:19.372Z,21.24
2023-07-07T10:38:56.136Z,20.50
2023-07-07T10:41:28.500Z,20.15
2023-07-07T10:43:56.030Z,21.20
2023-07-07T10:46:23.092Z,20.00
2023-07-07T10:48:53.870Z,20.69
2023-07-07T10:51:20.830Z,19.36
2023-07-07T10:53:51.358Z,19.87
2023-07-07T10:56:31.713Z,19.68
2023-07-07T10:59:17.193Z,18.08
2023-07-07T11:02:25.752Z,17.27
2023-07-07T11:04:55.904Z,16.41
2023-07-07T11:07:26.062Z,16.88
2023-07-07T11:09:57.043Z,17.50
2023-07-07T11:12:51.814Z,16.82
2023-07-07T11:15:39.594Z,17.89
2023-07-07T11:18:13.077Z,16.43
2023-07-07T11:21:00.915Z,16.78
2023-07-07T11:23:36.700Z,16.42
2023-07-07T11:26:19.275Z,18.10
2023-07-07T11:29:09.500Z,19.28
2023-07-07T11:32:25.647Z,20.25
2023-07-07T11:35:11.963Z,18.86
2023-07-07T11:37:58.833Z,17.93
2023-07-07T11:40:33.563Z,16.07
2023-07-07T11:43:03.484Z,15.05
2023-07-07T11:45:35.153Z,15.20
2023-07-07T11:48:21.158Z,14.73
2023-07-07T11:51:20.781Z,15.13
2023-07-07T11:54:15.311Z,14.90
2023-07-07T11:57:27.216Z,15.13
2023-07-07T12:00:12.309Z,14.17
2023-07-07T12:02:55.161Z,14.16
2023-07-07T12:05:30.974Z,14.35
2023-07-07T12:08:16.612Z,13.55
2023-07-07T12:10:53.230Z,13.51
2023-07-07T12:13:26.764Z,15.12
2023-07-07T12:16:06.845Z,16.46
2023-07-07T12:18:37.640Z,15.36
2023-07-07T12:21:11.438Z,15.29
2023-07-07T12:23:42.102Z,15.25
2023-07-07T12:26:27.847Z,15.25
2023-07-07T12:29:00.434Z,15.84
2023-07-07T12:31:29.448Z,15.93
2023-07-07T12:33:56.959Z,15.83
2023-07-07T12:36:29.856Z,14.79
2023-07-07T12:39:01.048Z,14.59
2023-07-07T12:41:30.252Z,14.40
2023-07-07T12:44:03.915Z,14.87
2023-07-07T12:46:34.055Z,14.56
2023-07-07T12:49:08.076Z,14.71
2023-07-07T12:51:38.672Z,15.02
2023-07-07T12:54:05.862Z,17.20
2023-07-07T12:56:32.967Z,16.13
2023-07-07T12:59:02.759Z,15.03
2023-07-07T13:01:35.317Z,14.56
2023-07-07T13:04:12.436Z,14.34
2023-07-07T13:06:41.497Z,13.67
2023-07-07T13:09:12.579Z,13.81
2023-07-07T13:11:44.898Z,13.38
2023-07-07T13:14:30.715Z,12.89
2023-07-07T13:17:03.780Z,12.84
2023-07-07T13:19:34.083Z,12.91
2023-07-07T13:22:11.082Z,12.32
2023-07-07T13:24:43.940Z,13.39
2023-07-07T13:27:22.759Z,13.45
2023-07-07T13:29:56.506Z,13.28
2023-07-07T13:32:27.401Z,13.24
2023-07-07T13:34:54.918Z,12.77
2023-07-07T13:37:22.055Z,11.68
2023-07-07T13:39:49.123Z,11.72
2023-07-07T13:42:30.740Z,11.89
2023-07-07T13:45:04.360Z,11.99
2023-07-07T13:47:34.251Z,12.27
2023-07-07T13:50:07.261Z,12.46
2023-07-07T13:52:36.355Z,14.16
2023-07-07T13:55:03.612Z,13.36
2023-07-07T13:57:33.822Z,13.79
2023-07-07T14:00:09.050Z,13.67
2023-07-07T14:02:45.926Z,14.62
2023-07-07T14:05:18.793Z,14.16
2023-07-07T14:07:47.606Z,13.97
2023-07-07T14:10:28.940Z,13.15
2023-07-07T14:12:57.409Z,14.04
2023-07-07T14:15:45.015Z,14.51
2023-07-07T14:18:13.433Z,14.26
2023-07-07T14:20:50.430Z,13.68
2023-07-07T14:23:19.084Z,15.71
2023-07-07T14:25:48.180Z,15.95
2023-07-07T14:28:21.551Z,15.84
2023-07-07T14:30:51.168Z,15.88
2023-07-07T14:33:25.825Z,15.16
2023-07-07T14:36:01.109Z,14.90
2023-07-07T14:38:36.729Z,14.16
2023-07-07T14:41:12.375Z,13.96
2023-07-07T14:43:44.650Z,13.59
2023-07-07T14:46:24.557Z,14.12
2023-07-07T14:48:54.430Z,14.13
2023-07-07T14:51:34.574Z,13.45
2023-07-07T14:54:05.083Z,13.44
2023-07-07T14:56:38.040Z,13.79
2023-07-07T14:59:19.650Z,13.58
2023-07-07T15:01:56.865Z,14.33
2023-07-07T15:04:29.922Z,14.17
2023-07-07T15:06:56.868Z,14.60
2023-07-07T15:09:24.708Z,13.78
2023-07-07T15:11:52.800Z,13.92
2023-07-07T15:14:19.596Z,15.29
2023-07-07T15:16:48.515Z,14.50
2023-07-07T15:19:18.104Z,15.64
2023-07-07T15:21:45.902Z,14.47
2023-07-07T15:24:13.045Z,14.22
2023-07-07T15:26:41.844Z,14.58
2023-07-07T15:29:18.727Z,13.76
2023-07-07T15:31:50.190Z,14.15
2023-07-07T15:34:17.535Z,13.98
2023-07-07T15:36:44.468Z,14.15
2023-07-07T15:39:13.814Z,13.95
2023-07-07T15:41:41.407Z,14.22
2023-07-07T15:44:08.335Z,14.48
2023-07-07T15:46:44.386Z,13.69
2023-07-07T15:49:17.577Z,13.98
2023-07-07T15:51:46.788Z,13.87
2023-07-07T15:54:14.010Z,13.45
2023-07-07T15:56:44.217Z,14.07
2023-07-07T15:59:25.146Z,14.07
2023-07-07T16:01:54.340Z,13.43
2023-07-07T16:04:22.965Z,13.54
2023-07-07T16:06:54.121Z,13.42
2023-07-07T16:09:24.082Z,14.02
2023-07-07T16:11:51.367Z,14.50
2023-07-07T16:14:18.112Z,15.19
2023-07-07T16:16:47.758Z,14.96
2023-07-07T16:19:17.352Z,15.31
2023-07-07T16:21:44.740Z,14.58
2023-07-07T16:24:11.846Z,14.58
2023-07-07T16:26:40.558Z,14.42
2023-07-07T16:29:13.962Z,14.48
2023-07-07T16:31:41.326Z,15.03
2023-07-07T16:34:08.271Z,15.03
2023-07-07T16:36:35.521Z,14.59
2023-07-07T16:39:02.663Z,14.78
2023-07-07T16:41:30.189Z,15.07
2023-07-07T16:43:59.714Z,15.25
2023-07-07T16:46:27.425Z,15.04
2023-07-07T16:48:54.898Z,14.64
2023-07-07T16:51:24.732Z,14.41
2023-07-07T16:53:52.143Z,14.78
2023-07-07T16:56:26.854Z,15.26
2023-07-07T16:58:54.874Z,15.37
2023-07-07T17:01:22.760Z,14.62
2023-07-07T17:03:49.908Z,14.95
2023-07-07T17:06:26.288Z,15.96
2023-07-07T17:08:58.050Z,16.66
2023-07-07T17:11:27.727Z,16.25
2023-07-07T17:13:55.241Z,16.22
2023-07-07T17:16:23.785Z,16.64
2023-07-07T17:18:54.464Z,16.39
2023-07-07T17:21:23.771Z,16.44
2023-07-07T17:23:51.644Z,17.02
2023-07-07T17:26:27.142Z,16.97
2023-07-07T17:28:55.525Z,17.03
2023-07-07T17:31:26.932Z,17.27
2023-07-07T17:33:56.364Z,17.65
2023-07-07T17:36:27.809Z,17.06
2023-07-07T17:38:57.225Z,17.86
2023-07-07T17:41:30.251Z,18.05
2023-07-07T17:43:57.357Z,17.99
2023-07-07T17:46:33.856Z,17.49
2023-07-07T17:49:06.394Z,18.56
2023-07-07T17:51:35.756Z,18.53
2023-07-07T17:54:02.762Z,18.70
2023-07-07T17:56:33.373Z,19.20
2023-07-07T17:59:01.506Z,19.15
2023-07-07T18:01:29.205Z,19.20
2023-07-07T18:03:56.593Z,19.61
2023-07-07T18:06:28.575Z,19.43
2023-07-07T18:08:56.733Z,19.48
2023-07-07T18:11:26.598Z,19.86
2023-07-07T18:13:54.236Z,19.59
2023-07-07T18:16:29.589Z,20.14
2023-07-07T18:19:16.151Z,20.78
2023-07-07T18:21:52.361Z,20.92
2023-07-07T18:24:23.438Z,21.34
2023-07-07T18:26:50.492Z,21.52
2023-07-07T18:29:23.666Z,21.48
2023-07-07T18:31:51.037Z,21.81
2023-07-07T18:34:18.099Z,21.72
2023-07-07T18:36:49.050Z,22.26
2023-07-07T18:39:22.730Z,22.53
2023-07-07T18:41:52.714Z,22.38
2023-07-07T18:44:21.443Z,22.57
2023-07-07T18:46:48.977Z,23.57
2023-07-07T18:49:17.815Z,24.08
2023-07-07T18:51:47.572Z,23.82
2023-07-07T18:54:16.467Z,23.98
2023-07-07T18:56:47.655Z,23.44
2023-07-07T18:59:22.640Z,24.14
2023-07-07T19:01:50.370Z,24.20
2023-07-07T19:04:17.493Z,24.08
2023-07-07T19:06:46.135Z,24.10
2023-07-07T19:09:23.020Z,24.68
2023-07-07T19:11:54.143Z,24.88
2023-07-07T19:14:21.698Z,25.56
2023-07-07T19:16:52.151Z,26.13
2023-07-07T19:19:27.563Z,26.91
2023-07-07T19:21:54.907Z,27.70
2023-07-07T19:24:22.526Z,27.88
2023-07-07T19:26:53.770Z,27.92
2023-07-07T19:29:20.703Z,27.63
2023-07-07T19:31:48.079Z,27.59
2023-07-07T19:34:14.953Z,27.85
2023-07-07T19:36:43.609Z,27.94
2023-07-07T19:39:22.154Z,28.25
2023-07-07T19:41:50.969Z,28.64
2023-07-07T19:44:20.300Z,28.92
2023-07-07T19:46:47.546Z,29.26
2023-07-07T19:49:19.039Z,28.94
2023-07-07T19:51:46.982Z,29.26
2023-07-07T19:54:14.160Z,29.93
2023-07-07T19:56:41.071Z,29.96
2023-07-07T19:59:13.370Z,29.79
2023-07-07T20:01:40.442Z,30.22
2023-07-07T20:04:07.390Z,30.58
2023-07-07T20:06:41.871Z,30.94
2023-07-07T20:09:21.287Z,30.83
2023-07-07T20:11:49.412Z,30.98
2023-07-07T20:14:16.858Z,31.60
2023-07-07T20:16:51.099Z,31.46
2023-07-07T20:19:21.958Z,31.46
2023-07-07T20:21:50.265Z,31.51
2023-07-07T20:24:27.285Z,31.60
2023-07-07T20:26:59.293Z,31.32
2023-07-07T20:29:31.010Z,31.19
2023-07-07T20:31:57.987Z,31.51
2023-07-07T20:34:25.536Z,31.11
2023-07-07T20:36:52.357Z,31.19
2023-07-07T20:39:21.605Z,30.80
2023-07-07T20:41:49.874Z,31.19
2023-07-07T20:44:17.643Z,30.65
2023-07-07T20:46:46.685Z,31.18
2023-07-07T20:49:19.531Z,31.06
2023-07-07T20:51:47.806Z,31.36
2023-07-07T20:54:15.169Z,31.93
2023-07-07T20:56:42.382Z,32.16
2023-07-07T20:59:25.883Z,31.83
2023-07-07T21:01:56.096Z,31.75
2023-07-07T21:04:23.390Z,31.66
2023-07-07T21:06:52.650Z,31.78
2023-07-07T21:09:19.784Z,31.77
2023-07-07T21:11:46.853Z,31.96
2023-07-07T21:14:14.074Z,32.09
2023-07-07T21:16:45.793Z,32.13
2023-07-07T21:19:13.090Z,31.70
2023-07-07T21:21:40.969Z,31.57
2023-07-07T21:24:08.534Z,31.77
2023-07-07T21:26:36.491Z,31.28
2023-07-07T21:29:04.012Z,31.60
2023-07-07T21:31:31.676Z,31.61
2023-07-07T21:34:00.718Z,31.69
2023-07-07T21:36:34.163Z,32.16
2023-07-07T21:39:27.546Z,31.43
2023-07-07T21:42:10.805Z,31.30
2023-07-07T21:44:41.358Z,31.94
2023-07-07T21:47:17.378Z,31.78
2023-07-07T21:49:45.981Z,32.04
2023-07-07T21:52:16.039Z,32.28
2023-07-07T21:54:43.417Z,31.93
2023-07-07T21:57:37.587Z,32.04
2023-07-07T22:00:13.031Z,32.42
2023-07-07T22:02:41.852Z,33.35
2023-07-07T22:05:11.313Z,34.37
2023-07-07T22:07:38.489Z,34.01
2023-07-07T22:10:28.977Z,33.98
2023-07-07T22:12:57.103Z,34.67
2023-07-07T22:15:24.156Z,34.99
2023-07-07T22:17:51.586Z,34.21
2023-07-07T22:20:39.325Z,34.35
2023-07-07T22:23:09.687Z,33.88
2023-07-07T22:25:36.823Z,33.16
2023-07-07T22:28:10.736Z,33.17
2023-07-07T22:30:41.633Z,32.73
2023-07-07T22:33:13.423Z,32.21
2023-07-07T22:35:40.580Z,32.45
2023-07-07T22:38:28.427Z,32.30
2023-07-07T22:40:58.372Z,31.68
2023-07-07T22:43:27.909Z,32.24
2023-07-07T22:46:01.400Z,32.49
2023-07-07T22:48:29.471Z,32.12
2023-07-07T22:50:57.612Z,31.42
2023-07-07T22:53:25.017Z,31.79
2023-07-07T22:55:53.179Z,31.41
2023-07-07T22:58:22.236Z,31.77
2023-07-07T23:00:49.982Z,31.67
2023-07-07T23:03:17.401Z,31.82
2023-07-07T23:05:46.715Z,32.30
2023-07-07T23:08:26.300Z,32.45
2023-07-07T23:10:53.955Z,32.91
2023-07-07T23:13:21.130Z,32.47
2023-07-07T23:15:48.716Z,33.07
2023-07-07T23:18:17.129Z,32.75
2023-07-07T23:20:44.314Z,32.83
2023-07-07T23:23:21.776Z,33.48
2023-07-07T23:25:58.029Z,33.07
2023-07-07T23:28:27.859Z,33.60
2023-07-07T23:31:05.866Z,33.76
2023-07-07T23:33:36.873Z,33.98
2023-07-07T23:36:19.574Z,34.37
2023-07-07T23:38:47.187Z,34.48
2023-07-07T23:41:14.550Z,34.08
2023-07-07T23:43:42.259Z,34.34
2023-07-07T23:46:11.784Z,33.99
2023-07-07T23:48:38.757Z,33.67
2023-07-07T23:51:05.803Z,33.73
2023-07-07T23:53:32.694Z,34.92
2023-07-07T23:55:59.636Z,35.74
2023-07-07T23:58:28.800Z,36.28
